sensor_id;sensor_type;location;lat;lon;timestamp;P1;durP1;ratioP1;P2;durP2;ratioP2
64052;SDS011;50299;49.524;8.536;2023-08-17T00:01:08;6.07;;;5.65;;
64052;SDS011;50299;49.524;8.536;2023-08-17T00:03:35;4.00;;;2.58;;
64052;SDS011;50299;49.524;8.536;2023-08-17T00:06:01;3.38;;;2.80;;
64052;SDS011;50299;49.524;8.536;2023-08-17T00:08:28;4.15;;;2.53;;
64052;SDS011;50299;49.524;8.536;2023-08-17T00:10:54;10.73;;;9.82;;
64052;SDS011;50299;49.524;8.536;2023-08-17T00:13:21;3.47;;;3.22;;
64052;SDS011;50299;49.524;8.536;2023-08-17T00:15:47;4.53;;;4.22;;
64052;SDS011;50299;49.524;8.536;2023-08-17T00:18:14;3.28;;;2.97;;
64052;SDS011;50299;49.524;8.536;2023-08-17T00:20:40;3.28;;;2.85;;
64052;SDS011;50299;49.524;8.536;2023-08-17T00:23:07;2.47;;;2.28;;
64052;SDS011;50299;49.524;8.536;2023-08-17T00:25:34;2.70;;;2.47;;
64052;SDS011;50299;49.524;8.536;2023-08-17T00:28:00;4.32;;;2.78;;
64052;SDS011;50299;49.524;8.536;2023-08-17T00:30:27;3.80;;;2.88;;
64052;SDS011;50299;49.524;8.536;2023-08-17T00:32:53;3.20;;;2.90;;
64052;SDS011;50299;49.524;8.536;2023-08-17T00:35:20;3.97;;;3.00;;
64052;SDS011;50299;49.524;8.536;2023-08-17T00:37:46;3.13;;;2.95;;
64052;SDS011;50299;49.524;8.536;2023-08-17T00:40:13;4.38;;;3.97;;
64052;SDS011;50299;49.524;8.536;2023-08-17T00:42:39;2.97;;;2.78;;
64052;SDS011;50299;49.524;8.536;2023-08-17T00:45:06;3.70;;;2.92;;
64052;SDS011;50299;49.524;8.536;2023-08-17T00:47:32;3.58;;;3.28;;
64052;SDS011;50299;49.524;8.536;2023-08-17T00:49:59;3.67;;;3.38;;
64052;SDS011;50299;49.524;8.536;2023-08-17T00:52:25;2.70;;;2.50;;
64052;SDS011;50299;49.524;8.536;2023-08-17T00:54:52;3.45;;;2.63;;
64052;SDS011;50299;49.524;8.536;2023-08-17T00:57:19;2.60;;;2.40;;
64052;SDS011;50299;49.524;8.536;2023-08-17T00:59:47;2.95;;;2.75;;
64052;SDS011;50299;49.524;8.536;2023-08-17T01:02:30;3.33;;;2.65;;
64052;SDS011;50299;49.524;8.536;2023-08-17T01:04:57;3.53;;;3.33;;
64052;SDS011;50299;49.524;8.536;2023-08-17T01:07:24;4.38;;;3.03;;
64052;SDS011;50299;49.524;8.536;2023-08-17T01:09:51;3.67;;;2.65;;
64052;SDS011;50299;49.524;8.536;2023-08-17T01:12:19;3.05;;;2.60;;
64052;SDS011;50299;49.524;8.536;2023-08-17T01:14:58;4.22;;;2.95;;
64052;SDS011;50299;49.524;8.536;2023-08-17T01:20:32;5.13;;;2.95;;
64052;SDS011;50299;49.524;8.536;2023-08-17T01:23:04;3.67;;;3.28;;
64052;SDS011;50299;49.524;8.536;2023-08-17T01:25:31;3.00;;;2.72;;
64052;SDS011;50299;49.524;8.536;2023-08-17T01:28:03;2.90;;;2.35;;
64052;SDS011;50299;49.524;8.536;2023-08-17T01:30:34;2.97;;;2.70;;
64052;SDS011;50299;49.524;8.536;2023-08-17T01:33:08;2.97;;;2.67;;
64052;SDS011;50299;49.524;8.536;2023-08-17T01:35:46;2.45;;;2.25;;
64052;SDS011;50299;49.524;8.536;2023-08-17T01:38:17;2.92;;;2.72;;
64052;SDS011;50299;49.524;8.536;2023-08-17T01:40:47;3.10;;;2.35;;
64052;SDS011;50299;49.524;8.536;2023-08-17T01:43:15;2.92;;;2.70;;
64052;SDS011;50299;49.524;8.536;2023-08-17T01:45:42;4.00;;;3.13;;
64052;SDS011;50299;49.524;8.536;2023-08-17T01:48:09;2.92;;;2.72;;
64052;SDS011;50299;49.524;8.536;2023-08-17T01:50:35;3.10;;;2.75;;
64052;SDS011;50299;49.524;8.536;2023-08-17T01:53:02;2.92;;;2.60;;
64052;SDS011;50299;49.524;8.536;2023-08-17T01:55:28;4.78;;;3.33;;
64052;SDS011;50299;49.524;8.536;2023-08-17T01:57:54;3.30;;;3.00;;
64052;SDS011;50299;49.524;8.536;2023-08-17T02:00:33;3.53;;;2.70;;
64052;SDS011;50299;49.524;8.536;2023-08-17T02:02:59;3.28;;;2.92;;
64052;SDS011;50299;49.524;8.536;2023-08-17T02:05:26;3.50;;;3.03;;
64052;SDS011;50299;49.524;8.536;2023-08-17T02:07:55;3.42;;;3.20;;
64052;SDS011;50299;49.524;8.536;2023-08-17T02:10:21;4.18;;;3.45;;
64052;SDS011;50299;49.524;8.536;2023-08-17T02:12:48;3.55;;;3.25;;
64052;SDS011;50299;49.524;8.536;2023-08-17T02:15:14;3.92;;;3.42;;
64052;SDS011;50299;49.524;8.536;2023-08-17T02:17:42;4.05;;;3.00;;
64052;SDS011;50299;49.524;8.536;2023-08-17T02:20:08;5.32;;;3.00;;
64052;SDS011;50299;49.524;8.536;2023-08-17T02:22:35;3.90;;;3.50;;
64052;SDS011;50299;49.524;8.536;2023-08-17T02:25:02;3.72;;;2.97;;
64052;SDS011;50299;49.524;8.536;2023-08-17T02:27:28;4.10;;;3.28;;
64052;SDS011;50299;49.524;8.536;2023-08-17T02:29:57;3.50;;;3.28;;
64052;SDS011;50299;49.524;8.536;2023-08-17T02:32:23;3.85;;;3.50;;
64052;SDS011;50299;49.524;8.536;2023-08-17T02:34:50;4.68;;;3.70;;
64052;SDS011;50299;49.524;8.536;2023-08-17T02:37:16;4.32;;;3.92;;
64052;SDS011;50299;49.524;8.536;2023-08-17T02:39:43;5.50;;;3.60;;
64052;SDS011;50299;49.524;8.536;2023-08-17T02:42:09;4.80;;;3.38;;
64052;SDS011;50299;49.524;8.536;2023-08-17T02:44:36;3.88;;;3.58;;
64052;SDS011;50299;49.524;8.536;2023-08-17T02:47:02;5.85;;;4.63;;
64052;SDS011;50299;49.524;8.536;2023-08-17T02:49:28;5.43;;;4.00;;
64052;SDS011;50299;49.524;8.536;2023-08-17T02:51:55;4.95;;;4.45;;
64052;SDS011;50299;49.524;8.536;2023-08-17T02:54:21;4.72;;;4.32;;
64052;SDS011;50299;49.524;8.536;2023-08-17T02:56:48;5.38;;;4.07;;
64052;SDS011;50299;49.524;8.536;2023-08-17T02:59:14;4.75;;;3.83;;
64052;SDS011;50299;49.524;8.536;2023-08-17T03:01:41;5.70;;;3.72;;
64052;SDS011;50299;49.524;8.536;2023-08-17T03:04:07;5.20;;;4.80;;
64052;SDS011;50299;49.524;8.536;2023-08-17T03:06:33;5.03;;;4.57;;
64052;SDS011;50299;49.524;8.536;2023-08-17T03:09:00;5.18;;;4.68;;
64052;SDS011;50299;49.524;8.536;2023-08-17T03:11:26;5.57;;;4.20;;
64052;SDS011;50299;49.524;8.536;2023-08-17T03:13:53;5.63;;;5.10;;
64052;SDS011;50299;49.524;8.536;2023-08-17T03:16:26;5.93;;;5.43;;
64052;SDS011;50299;49.524;8.536;2023-08-17T03:18:53;6.00;;;5.40;;
64052;SDS011;50299;49.524;8.536;2023-08-17T03:21:19;6.50;;;5.35;;
64052;SDS011;50299;49.524;8.536;2023-08-17T03:23:46;6.00;;;5.13;;
64052;SDS011;50299;49.524;8.536;2023-08-17T03:26:12;6.13;;;5.63;;
64052;SDS011;50299;49.524;8.536;2023-08-17T03:28:39;6.32;;;5.75;;
64052;SDS011;50299;49.524;8.536;2023-08-17T03:31:06;6.80;;;6.18;;
64052;SDS011;50299;49.524;8.536;2023-08-17T03:33:33;6.45;;;5.47;;
64052;SDS011;50299;49.524;8.536;2023-08-17T03:35:59;6.05;;;5.45;;
64052;SDS011;50299;49.524;8.536;2023-08-17T03:38:26;5.80;;;5.30;;
64052;SDS011;50299;49.524;8.536;2023-08-17T03:40:52;10.48;;;7.50;;
64052;SDS011;50299;49.524;8.536;2023-08-17T03:43:20;7.65;;;6.85;;
64052;SDS011;50299;49.524;8.536;2023-08-17T03:45:46;7.68;;;6.88;;
64052;SDS011;50299;49.524;8.536;2023-08-17T03:48:13;7.53;;;6.65;;
64052;SDS011;50299;49.524;8.536;2023-08-17T03:50:39;9.30;;;7.88;;
64052;SDS011;50299;49.524;8.536;2023-08-17T03:53:05;9.60;;;7.82;;
64052;SDS011;50299;49.524;8.536;2023-08-17T03:55:32;11.30;;;9.32;;
64052;SDS011;50299;49.524;8.536;2023-08-17T03:57:58;25.38;;;10.32;;
64052;SDS011;50299;49.524;8.536;2023-08-17T04:00:25;12.13;;;9.13;;
64052;SDS011;50299;49.524;8.536;2023-08-17T04:02:52;30.65;;;10.35;;
64052;SDS011;50299;49.524;8.536;2023-08-17T04:05:18;59.90;;;10.52;;
64052;SDS011;50299;49.524;8.536;2023-08-17T04:07:45;41.60;;;9.68;;
64052;SDS011;50299;49.524;8.536;2023-08-17T04:10:13;25.65;;;9.05;;
64052;SDS011;50299;49.524;8.536;2023-08-17T04:12:40;48.20;;;10.30;;
64052;SDS011;50299;49.524;8.536;2023-08-17T04:15:06;55.55;;;10.77;;
64052;SDS011;50299;49.524;8.536;2023-08-17T04:17:33;64.13;;;10.45;;
64052;SDS011;50299;49.524;8.536;2023-08-17T04:19:59;61.33;;;11.68;;
64052;SDS011;50299;49.524;8.536;2023-08-17T04:22:26;48.13;;;11.10;;
64052;SDS011;50299;49.524;8.536;2023-08-17T04:24:52;72.40;;;11.40;;
64052;SDS011;50299;49.524;8.536;2023-08-17T04:27:18;67.28;;;12.05;;
64052;SDS011;50299;49.524;8.536;2023-08-17T04:29:45;32.92;;;10.55;;
64052;SDS011;50299;49.524;8.536;2023-08-17T04:32:15;59.45;;;11.70;;
64052;SDS011;50299;49.524;8.536;2023-08-17T04:34:42;30.70;;;10.15;;
64052;SDS011;50299;49.524;8.536;2023-08-17T04:37:11;36.80;;;9.65;;
64052;SDS011;50299;49.524;8.536;2023-08-17T04:39:37;31.77;;;9.98;;
64052;SDS011;50299;49.524;8.536;2023-08-17T04:42:04;19.85;;;9.45;;
64052;SDS011;50299;49.524;8.536;2023-08-17T04:44:30;28.40;;;9.57;;
64052;SDS011;50299;49.524;8.536;2023-08-17T04:46:57;26.55;;;9.10;;
64052;SDS011;50299;49.524;8.536;2023-08-17T04:49:23;16.63;;;8.60;;
64052;SDS011;50299;49.524;8.536;2023-08-17T04:51:50;15.65;;;8.10;;
64052;SDS011;50299;49.524;8.536;2023-08-17T04:54:16;22.83;;;8.95;;
64052;SDS011;50299;49.524;8.536;2023-08-17T04:56:43;17.75;;;7.63;;
64052;SDS011;50299;49.524;8.536;2023-08-17T04:59:09;42.72;;;8.88;;
64052;SDS011;50299;49.524;8.536;2023-08-17T05:01:36;19.58;;;8.73;;
64052;SDS011;50299;49.524;8.536;2023-08-17T05:04:06;21.38;;;8.13;;
64052;SDS011;50299;49.524;8.536;2023-08-17T05:06:33;17.10;;;9.20;;
64052;SDS011;50299;49.524;8.536;2023-08-17T05:08:59;32.55;;;9.15;;
64052;SDS011;50299;49.524;8.536;2023-08-17T05:11:26;29.33;;;9.13;;
64052;SDS011;50299;49.524;8.536;2023-08-17T05:13:52;18.42;;;10.13;;
64052;SDS011;50299;49.524;8.536;2023-08-17T05:16:19;12.60;;;8.50;;
64052;SDS011;50299;49.524;8.536;2023-08-17T05:18:45;15.73;;;8.98;;
64052;SDS011;50299;49.524;8.536;2023-08-17T05:21:11;18.52;;;9.20;;
64052;SDS011;50299;49.524;8.536;2023-08-17T05:23:38;16.45;;;9.55;;
64052;SDS011;50299;49.524;8.536;2023-08-17T05:26:04;12.25;;;9.05;;
64052;SDS011;50299;49.524;8.536;2023-08-17T05:28:31;15.32;;;10.30;;
64052;SDS011;50299;49.524;8.536;2023-08-17T05:31:03;17.58;;;9.88;;
64052;SDS011;50299;49.524;8.536;2023-08-17T05:33:31;14.85;;;10.40;;
64052;SDS011;50299;49.524;8.536;2023-08-17T05:35:57;14.45;;;9.75;;
64052;SDS011;50299;49.524;8.536;2023-08-17T05:38:24;19.95;;;10.60;;
64052;SDS011;50299;49.524;8.536;2023-08-17T05:40:57;14.95;;;10.73;;
64052;SDS011;50299;49.524;8.536;2023-08-17T05:43:24;14.23;;;10.55;;
64052;SDS011;50299;49.524;8.536;2023-08-17T05:45:52;15.98;;;11.45;;
64052;SDS011;50299;49.524;8.536;2023-08-17T05:48:18;16.75;;;11.68;;
64052;SDS011;50299;49.524;8.536;2023-08-17T05:50:47;22.95;;;13.02;;
64052;SDS011;50299;49.524;8.536;2023-08-17T05:53:13;20.63;;;13.27;;
64052;SDS011;50299;49.524;8.536;2023-08-17T05:55:40;16.45;;;11.52;;
64052;SDS011;50299;49.524;8.536;2023-08-17T05:58:06;19.08;;;12.70;;
64052;SDS011;50299;49.524;8.536;2023-08-17T06:00:33;19.73;;;12.70;;
64052;SDS011;50299;49.524;8.536;2023-08-17T06:02:59;17.98;;;12.52;;
64052;SDS011;50299;49.524;8.536;2023-08-17T06:05:29;17.33;;;12.85;;
64052;SDS011;50299;49.524;8.536;2023-08-17T06:07:56;18.92;;;12.05;;
64052;SDS011;50299;49.524;8.536;2023-08-17T06:10:23;17.50;;;13.07;;
64052;SDS011;50299;49.524;8.536;2023-08-17T06:12:54;19.90;;;16.15;;
64052;SDS011;50299;49.524;8.536;2023-08-17T06:15:22;20.00;;;12.27;;
64052;SDS011;50299;49.524;8.536;2023-08-17T06:17:49;17.10;;;11.98;;
64052;SDS011;50299;49.524;8.536;2023-08-17T06:20:18;20.77;;;13.02;;
64052;SDS011;50299;49.524;8.536;2023-08-17T06:22:46;15.55;;;11.27;;
64052;SDS011;50299;49.524;8.536;2023-08-17T06:25:14;14.73;;;10.98;;
64052;SDS011;50299;49.524;8.536;2023-08-17T06:27:41;13.80;;;10.75;;
64052;SDS011;50299;49.524;8.536;2023-08-17T06:30:09;14.65;;;10.50;;
64052;SDS011;50299;49.524;8.536;2023-08-17T06:32:36;13.70;;;10.88;;
64052;SDS011;50299;49.524;8.536;2023-08-17T06:35:03;11.80;;;9.65;;
64052;SDS011;50299;49.524;8.536;2023-08-17T06:37:29;13.88;;;11.23;;
64052;SDS011;50299;49.524;8.536;2023-08-17T06:39:56;12.88;;;9.35;;
64052;SDS011;50299;49.524;8.536;2023-08-17T06:42:22;14.30;;;11.52;;
64052;SDS011;50299;49.524;8.536;2023-08-17T06:44:48;11.80;;;9.20;;
64052;SDS011;50299;49.524;8.536;2023-08-17T06:47:24;12.05;;;9.10;;
64052;SDS011;50299;49.524;8.536;2023-08-17T06:49:51;11.95;;;9.18;;
64052;SDS011;50299;49.524;8.536;2023-08-17T06:52:18;10.98;;;8.60;;
64052;SDS011;50299;49.524;8.536;2023-08-17T06:54:44;11.75;;;8.60;;
64052;SDS011;50299;49.524;8.536;2023-08-17T06:57:11;12.32;;;9.80;;
64052;SDS011;50299;49.524;8.536;2023-08-17T06:59:37;13.85;;;9.38;;
64052;SDS011;50299;49.524;8.536;2023-08-17T07:02:03;10.60;;;8.77;;
64052;SDS011;50299;49.524;8.536;2023-08-17T07:04:31;9.60;;;8.18;;
64052;SDS011;50299;49.524;8.536;2023-08-17T07:06:57;11.05;;;8.73;;
64052;SDS011;50299;49.524;8.536;2023-08-17T07:09:24;11.95;;;8.90;;
64052;SDS011;50299;49.524;8.536;2023-08-17T07:11:50;8.68;;;7.78;;
64052;SDS011;50299;49.524;8.536;2023-08-17T07:14:17;8.80;;;7.38;;
64052;SDS011;50299;49.524;8.536;2023-08-17T07:16:43;10.38;;;8.93;;
64052;SDS011;50299;49.524;8.536;2023-08-17T07:19:10;9.73;;;8.70;;
64052;SDS011;50299;49.524;8.536;2023-08-17T07:21:37;10.25;;;9.10;;
64052;SDS011;50299;49.524;8.536;2023-08-17T07:24:13;12.98;;;10.02;;
64052;SDS011;50299;49.524;8.536;2023-08-17T07:26:42;11.18;;;10.05;;
64052;SDS011;50299;49.524;8.536;2023-08-17T07:29:09;10.68;;;8.95;;
64052;SDS011;50299;49.524;8.536;2023-08-17T07:31:35;11.15;;;9.93;;
64052;SDS011;50299;49.524;8.536;2023-08-17T07:34:06;9.48;;;8.57;;
64052;SDS011;50299;49.524;8.536;2023-08-17T07:36:33;9.43;;;7.82;;
64052;SDS011;50299;49.524;8.536;2023-08-17T07:39:00;8.32;;;7.05;;
64052;SDS011;50299;49.524;8.536;2023-08-17T07:41:26;8.18;;;7.40;;
64052;SDS011;50299;49.524;8.536;2023-08-17T07:43:53;8.45;;;7.30;;
64052;SDS011;50299;49.524;8.536;2023-08-17T07:46:20;8.82;;;7.95;;
64052;SDS011;50299;49.524;8.536;2023-08-17T07:48:46;7.78;;;6.93;;
64052;SDS011;50299;49.524;8.536;2023-08-17T07:51:13;8.82;;;8.00;;
64052;SDS011;50299;49.524;8.536;2023-08-17T07:53:39;9.20;;;8.27;;
64052;SDS011;50299;49.524;8.536;2023-08-17T07:56:06;9.68;;;8.68;;
64052;SDS011;50299;49.524;8.536;2023-08-17T07:58:32;7.57;;;6.68;;
64052;SDS011;50299;49.524;8.536;2023-08-17T08:00:58;8.43;;;7.28;;
64052;SDS011;50299;49.524;8.536;2023-08-17T08:03:27;8.70;;;7.47;;
64052;SDS011;50299;49.524;8.536;2023-08-17T08:05:54;8.68;;;6.07;;
64052;SDS011;50299;49.524;8.536;2023-08-17T08:08:20;7.03;;;6.32;;
64052;SDS011;50299;49.524;8.536;2023-08-17T08:10:47;8.45;;;7.55;;
64052;SDS011;50299;49.524;8.536;2023-08-17T08:13:13;8.00;;;7.07;;
64052;SDS011;50299;49.524;8.536;2023-08-17T08:15:41;7.22;;;6.53;;
64052;SDS011;50299;49.524;8.536;2023-08-17T08:18:07;6.32;;;5.72;;
64052;SDS011;50299;49.524;8.536;2023-08-17T08:20:34;6.90;;;6.30;;
64052;SDS011;50299;49.524;8.536;2023-08-17T08:23:00;7.15;;;6.47;;
64052;SDS011;50299;49.524;8.536;2023-08-17T08:25:27;8.13;;;7.22;;
64052;SDS011;50299;49.524;8.536;2023-08-17T08:27:53;7.30;;;6.70;;
64052;SDS011;50299;49.524;8.536;2023-08-17T08:30:20;7.28;;;6.40;;
64052;SDS011;50299;49.524;8.536;2023-08-17T08:32:46;7.32;;;6.30;;
64052;SDS011;50299;49.524;8.536;2023-08-17T08:35:12;6.57;;;5.75;;
64052;SDS011;50299;49.524;8.536;2023-08-17T08:37:39;7.05;;;6.43;;
64052;SDS011;50299;49.524;8.536;2023-08-17T08:40:10;8.15;;;6.88;;
64052;SDS011;50299;49.524;8.536;2023-08-17T08:42:39;7.45;;;6.75;;
64052;SDS011;50299;49.524;8.536;2023-08-17T08:45:05;7.97;;;7.13;;
64052;SDS011;50299;49.524;8.536;2023-08-17T08:47:32;8.45;;;7.65;;
64052;SDS011;50299;49.524;8.536;2023-08-17T08:50:02;8.93;;;8.13;;
64052;SDS011;50299;49.524;8.536;2023-08-17T08:52:34;6.30;;;5.70;;
64052;SDS011;50299;49.524;8.536;2023-08-17T08:55:03;9.05;;;7.32;;
64052;SDS011;50299;49.524;8.536;2023-08-17T08:57:37;7.78;;;7.07;;
64052;SDS011;50299;49.524;8.536;2023-08-17T09:00:03;7.15;;;6.60;;
64052;SDS011;50299;49.524;8.536;2023-08-17T09:02:31;6.68;;;6.18;;
64052;SDS011;50299;49.524;8.536;2023-08-17T09:04:59;7.25;;;6.65;;
64052;SDS011;50299;49.524;8.536;2023-08-17T09:07:26;8.10;;;7.30;;
64052;SDS011;50299;49.524;8.536;2023-08-17T09:09:56;7.10;;;6.47;;
64052;SDS011;50299;49.524;8.536;2023-08-17T09:12:22;7.63;;;6.93;;
64052;SDS011;50299;49.524;8.536;2023-08-17T09:15:03;6.30;;;5.80;;
64052;SDS011;50299;49.524;8.536;2023-08-17T09:17:31;7.57;;;6.95;;
64052;SDS011;50299;49.524;8.536;2023-08-17T09:20:00;8.20;;;7.43;;
64052;SDS011;50299;49.524;8.536;2023-08-17T09:22:39;7.22;;;6.63;;
64052;SDS011;50299;49.524;8.536;2023-08-17T09:25:08;6.10;;;5.60;;
64052;SDS011;50299;49.524;8.536;2023-08-17T09:27:39;7.10;;;6.30;;
64052;SDS011;50299;49.524;8.536;2023-08-17T09:30:08;7.45;;;6.47;;
64052;SDS011;50299;49.524;8.536;2023-08-17T09:35:02;7.88;;;7.10;;
64052;SDS011;50299;49.524;8.536;2023-08-17T09:37:32;7.47;;;6.78;;
64052;SDS011;50299;49.524;8.536;2023-08-17T09:39:59;6.40;;;5.80;;
64052;SDS011;50299;49.524;8.536;2023-08-17T09:42:26;6.70;;;6.10;;
64052;SDS011;50299;49.524;8.536;2023-08-17T09:44:54;6.45;;;6.03;;
64052;SDS011;50299;49.524;8.536;2023-08-17T09:47:22;6.85;;;6.18;;
64052;SDS011;50299;49.524;8.536;2023-08-17T09:49:49;6.72;;;6.22;;
64052;SDS011;50299;49.524;8.536;2023-08-17T09:52:16;6.90;;;6.30;;
64052;SDS011;50299;49.524;8.536;2023-08-17T09:54:43;6.93;;;6.30;;
64052;SDS011;50299;49.524;8.536;2023-08-17T09:57:11;6.50;;;5.90;;
64052;SDS011;50299;49.524;8.536;2023-08-17T09:59:38;6.53;;;6.00;;
64052;SDS011;50299;49.524;8.536;2023-08-17T10:02:08;7.18;;;6.47;;
64052;SDS011;50299;49.524;8.536;2023-08-17T10:04:57;5.93;;;5.30;;
64052;SDS011;50299;49.524;8.536;2023-08-17T10:07:26;5.93;;;5.45;;
64052;SDS011;50299;49.524;8.536;2023-08-17T10:10:02;5.85;;;5.32;;
64052;SDS011;50299;49.524;8.536;2023-08-17T10:12:33;5.60;;;5.20;;
64052;SDS011;50299;49.524;8.536;2023-08-17T10:15:07;6.10;;;5.60;;
64052;SDS011;50299;49.524;8.536;2023-08-17T10:17:41;6.00;;;5.22;;
64052;SDS011;50299;49.524;8.536;2023-08-17T10:20:12;5.88;;;5.13;;
64052;SDS011;50299;49.524;8.536;2023-08-17T10:22:51;6.35;;;5.40;;
64052;SDS011;50299;49.524;8.536;2023-08-17T10:25:22;4.38;;;4.07;;
64052;SDS011;50299;49.524;8.536;2023-08-17T10:27:49;5.88;;;5.35;;
64052;SDS011;50299;49.524;8.536;2023-08-17T10:30:18;5.60;;;5.05;;
64052;SDS011;50299;49.524;8.536;2023-08-17T10:32:44;5.40;;;4.93;;
64052;SDS011;50299;49.524;8.536;2023-08-17T10:35:13;4.95;;;4.60;;
64052;SDS011;50299;49.524;8.536;2023-08-17T10:37:40;5.20;;;4.80;;
64052;SDS011;50299;49.524;8.536;2023-08-17T10:40:07;5.13;;;4.63;;
64052;SDS011;50299;49.524;8.536;2023-08-17T10:42:40;5.63;;;5.15;;
64052;SDS011;50299;49.524;8.536;2023-08-17T10:45:40;5.75;;;5.25;;
64052;SDS011;50299;49.524;8.536;2023-08-17T10:50:34;7.15;;;4.85;;
64052;SDS011;50299;49.524;8.536;2023-08-17T10:53:13;6.55;;;5.90;;
64052;SDS011;50299;49.524;8.536;2023-08-17T10:55:44;6.53;;;5.82;;
64052;SDS011;50299;49.524;8.536;2023-08-17T10:58:17;5.40;;;4.93;;
64052;SDS011;50299;49.524;8.536;2023-08-17T11:00:43;5.43;;;4.95;;
64052;SDS011;50299;49.524;8.536;2023-08-17T11:03:17;5.78;;;5.15;;
64052;SDS011;50299;49.524;8.536;2023-08-17T11:05:47;4.88;;;4.47;;
64052;SDS011;50299;49.524;8.536;2023-08-17T11:13:34;5.05;;;4.65;;
64052;SDS011;50299;49.524;8.536;2023-08-17T11:16:03;4.88;;;4.47;;
64052;SDS011;50299;49.524;8.536;2023-08-17T11:18:31;5.35;;;4.13;;
64052;SDS011;50299;49.524;8.536;2023-08-17T11:20:58;4.88;;;4.35;;
64052;SDS011;50299;49.524;8.536;2023-08-17T11:23:28;5.82;;;5.35;;
64052;SDS011;50299;49.524;8.536;2023-08-17T11:25:55;5.82;;;4.38;;
64052;SDS011;50299;49.524;8.536;2023-08-17T11:28:22;4.78;;;4.38;;
64052;SDS011;50299;49.524;8.536;2023-08-17T11:30:56;4.30;;;3.90;;
64052;SDS011;50299;49.524;8.536;2023-08-17T11:33:25;4.55;;;4.25;;
64052;SDS011;50299;49.524;8.536;2023-08-17T11:36:00;4.88;;;4.47;;
64052;SDS011;50299;49.524;8.536;2023-08-17T11:38:30;5.28;;;4.82;;
64052;SDS011;50299;49.524;8.536;2023-08-17T11:40:58;4.43;;;4.03;;
64052;SDS011;50299;49.524;8.536;2023-08-17T11:43:25;5.35;;;4.60;;
64052;SDS011;50299;49.524;8.536;2023-08-17T11:45:54;4.68;;;4.22;;
64052;SDS011;50299;49.524;8.536;2023-08-17T11:48:21;3.95;;;3.65;;
64052;SDS011;50299;49.524;8.536;2023-08-17T11:50:48;6.07;;;4.20;;
64052;SDS011;50299;49.524;8.536;2023-08-17T11:53:15;4.63;;;4.28;;
64052;SDS011;50299;49.524;8.536;2023-08-17T11:55:41;4.78;;;4.32;;
64052;SDS011;50299;49.524;8.536;2023-08-17T11:58:08;4.75;;;4.35;;
64052;SDS011;50299;49.524;8.536;2023-08-17T12:00:36;4.43;;;4.13;;
64052;SDS011;50299;49.524;8.536;2023-08-17T12:03:07;5.22;;;4.40;;
64052;SDS011;50299;49.524;8.536;2023-08-17T12:05:33;4.63;;;3.83;;
64052;SDS011;50299;49.524;8.536;2023-08-17T12:08:01;4.05;;;3.83;;
64052;SDS011;50299;49.524;8.536;2023-08-17T12:10:28;7.28;;;3.63;;
64052;SDS011;50299;49.524;8.536;2023-08-17T12:13:00;5.22;;;4.32;;
64052;SDS011;50299;49.524;8.536;2023-08-17T12:15:31;4.38;;;4.05;;
64052;SDS011;50299;49.524;8.536;2023-08-17T12:17:59;4.38;;;3.97;;
64052;SDS011;50299;49.524;8.536;2023-08-17T12:20:26;6.00;;;4.05;;
64052;SDS011;50299;49.524;8.536;2023-08-17T12:22:53;5.43;;;4.30;;
64052;SDS011;50299;49.524;8.536;2023-08-17T12:25:23;5.95;;;3.80;;
64052;SDS011;50299;49.524;8.536;2023-08-17T12:27:49;5.32;;;4.82;;
64052;SDS011;50299;49.524;8.536;2023-08-17T12:30:29;4.97;;;3.85;;
64052;SDS011;50299;49.524;8.536;2023-08-17T12:33:02;5.63;;;4.13;;
64052;SDS011;50299;49.524;8.536;2023-08-17T12:35:29;4.60;;;4.25;;
64052;SDS011;50299;49.524;8.536;2023-08-17T12:37:57;4.80;;;4.05;;
64052;SDS011;50299;49.524;8.536;2023-08-17T12:40:23;4.03;;;3.63;;
64052;SDS011;50299;49.524;8.536;2023-08-17T12:42:50;5.95;;;4.38;;
64052;SDS011;50299;49.524;8.536;2023-08-17T12:45:16;5.20;;;4.55;;
64052;SDS011;50299;49.524;8.536;2023-08-17T12:47:43;5.07;;;4.57;;
64052;SDS011;50299;49.524;8.536;2023-08-17T12:50:09;4.93;;;4.53;;
64052;SDS011;50299;49.524;8.536;2023-08-17T12:52:36;4.85;;;4.45;;
64052;SDS011;50299;49.524;8.536;2023-08-17T12:55:03;5.35;;;4.85;;
64052;SDS011;50299;49.524;8.536;2023-08-17T12:57:29;4.95;;;4.43;;
64052;SDS011;50299;49.524;8.536;2023-08-17T12:59:56;5.65;;;4.63;;
64052;SDS011;50299;49.524;8.536;2023-08-17T13:02:22;5.03;;;4.50;;
64052;SDS011;50299;49.524;8.536;2023-08-17T13:04:50;4.95;;;4.53;;
64052;SDS011;50299;49.524;8.536;2023-08-17T13:07:16;4.55;;;4.18;;
64052;SDS011;50299;49.524;8.536;2023-08-17T13:09:44;5.53;;;4.28;;
64052;SDS011;50299;49.524;8.536;2023-08-17T13:12:12;4.07;;;3.78;;
64052;SDS011;50299;49.524;8.536;2023-08-17T13:14:39;4.50;;;4.20;;
64052;SDS011;50299;49.524;8.536;2023-08-17T13:17:05;4.57;;;4.00;;
64052;SDS011;50299;49.524;8.536;2023-08-17T13:19:32;3.97;;;3.78;;
64052;SDS011;50299;49.524;8.536;2023-08-17T13:21:58;3.90;;;3.50;;
64052;SDS011;50299;49.524;8.536;2023-08-17T13:24:24;4.80;;;4.35;;
64052;SDS011;50299;49.524;8.536;2023-08-17T13:26:51;4.05;;;3.75;;
64052;SDS011;50299;49.524;8.536;2023-08-17T13:29:20;4.38;;;4.00;;
64052;SDS011;50299;49.524;8.536;2023-08-17T13:31:47;4.82;;;4.10;;
64052;SDS011;50299;49.524;8.536;2023-08-17T13:34:14;4.95;;;4.13;;
64052;SDS011;50299;49.524;8.536;2023-08-17T13:36:40;4.55;;;4.25;;
64052;SDS011;50299;49.524;8.536;2023-08-17T13:39:07;4.30;;;3.92;;
64052;SDS011;50299;49.524;8.536;2023-08-17T13:41:33;4.60;;;4.22;;
64052;SDS011;50299;49.524;8.536;2023-08-17T13:44:00;4.68;;;4.25;;
64052;SDS011;50299;49.524;8.536;2023-08-17T13:46:28;5.05;;;4.65;;
64052;SDS011;50299;49.524;8.536;2023-08-17T13:48:55;4.68;;;4.28;;
64052;SDS011;50299;49.524;8.536;2023-08-17T13:51:21;5.72;;;4.97;;
64052;SDS011;50299;49.524;8.536;2023-08-17T13:53:48;4.78;;;4.38;;
64052;SDS011;50299;49.524;8.536;2023-08-17T13:56:14;4.72;;;4.38;;
64052;SDS011;50299;49.524;8.536;2023-08-17T13:58:40;5.00;;;4.60;;
64052;SDS011;50299;49.524;8.536;2023-08-17T14:01:07;4.40;;;4.10;;
64052;SDS011;50299;49.524;8.536;2023-08-17T14:03:33;5.00;;;4.50;;
64052;SDS011;50299;49.524;8.536;2023-08-17T14:06:00;5.75;;;4.80;;
64052;SDS011;50299;49.524;8.536;2023-08-17T14:08:26;5.22;;;4.72;;
64052;SDS011;50299;49.524;8.536;2023-08-17T14:10:52;5.00;;;4.53;;
64052;SDS011;50299;49.524;8.536;2023-08-17T14:13:19;4.90;;;4.60;;
64052;SDS011;50299;49.524;8.536;2023-08-17T14:15:46;5.25;;;4.75;;
64052;SDS011;50299;49.524;8.536;2023-08-17T14:18:12;4.97;;;4.68;;
64052;SDS011;50299;49.524;8.536;2023-08-17T14:20:38;4.45;;;4.05;;
64052;SDS011;50299;49.524;8.536;2023-08-17T14:23:05;5.47;;;4.95;;
64052;SDS011;50299;49.524;8.536;2023-08-17T14:25:31;5.05;;;4.63;;
64052;SDS011;50299;49.524;8.536;2023-08-17T14:27:58;5.13;;;4.72;;
64052;SDS011;50299;49.524;8.536;2023-08-17T14:30:25;4.82;;;4.43;;
64052;SDS011;50299;49.524;8.536;2023-08-17T14:32:52;6.45;;;4.53;;
64052;SDS011;50299;49.524;8.536;2023-08-17T14:35:19;4.95;;;4.53;;
64052;SDS011;50299;49.524;8.536;2023-08-17T14:37:45;3.88;;;3.58;;
64052;SDS011;50299;49.524;8.536;2023-08-17T14:40:11;4.93;;;4.45;;
64052;SDS011;50299;49.524;8.536;2023-08-17T14:42:38;4.93;;;4.63;;
64052;SDS011;50299;49.524;8.536;2023-08-17T14:45:05;4.20;;;3.78;;
64052;SDS011;50299;49.524;8.536;2023-08-17T14:47:33;5.30;;;4.80;;
64052;SDS011;50299;49.524;8.536;2023-08-17T14:49:59;5.20;;;4.65;;
64052;SDS011;50299;49.524;8.536;2023-08-17T14:52:26;4.40;;;4.03;;
64052;SDS011;50299;49.524;8.536;2023-08-17T14:54:59;4.85;;;4.45;;
64052;SDS011;50299;49.524;8.536;2023-08-17T14:57:25;4.40;;;4.10;;
64052;SDS011;50299;49.524;8.536;2023-08-17T14:59:53;4.68;;;4.32;;